Time;durP1;ratioP1;P1;durP2;ratioP2;P2;SDS_P1;SDS_P2;PMS_P1;PMS_P2;Temp;Humidity;BMP_temperature;BMP_pressure;BME280_temperature;BME280_humidity;BME280_pressure;Samples;Min_cycle;Max_cycle;Signal;HPM_P1;HPM_P2
2022/09/04 00:01:22;;;;;;;8.52;1.83;;;;;;;13.82;61.27;101029.03;6047617;28;20054;-64
2022/09/04 00:04:36;;;;;;;3.67;1.80;;;;;;;13.87;61.15;101036.53;6064283;28;20037;-65
2022/09/04 00:07:50;;;;;;;4.28;1.63;;;;;;;13.80;61.70;101046.19;6047936;28;20034;-63
2022/09/04 00:11:11;;;;;;;5.82;1.67;;;;;;;13.75;62.24;101036.00;6059721;28;20096;-64
2022/09/04 00:14:17;;;;;;;3.75;1.85;;;;;;;13.69;61.74;101044.63;6046631;28;20458;-66
2022/09/04 00:17:22;;;;;;;10.77;2.17;;;;;;;13.63;62.40;101045.25;6047298;28;20030;-65
2022/09/04 00:20:32;;;;;;;5.97;2.25;;;;;;;13.47;62.81;101029.16;6046253;28;20048;-65
2022/09/04 00:23:34;;;;;;;3.65;1.95;;;;;;;13.63;62.24;101047.91;6045443;28;20062;-64
2022/09/04 00:27:00;;;;;;;3.83;1.92;;;;;;;13.56;62.53;101055.69;6047235;28;20452;-66
2022/09/04 00:30:00;;;;;;;;;;;;;;;13.43;62.75;101046.44;6046953;28;20444;-65
2022/09/04 00:33:10;;;;;;;3.40;1.98;;;;;;;13.48;62.42;101052.16;6063408;28;20375;-64
2022/09/04 00:36:06;;;;;;;3.15;2.20;;;;;;;13.47;62.68;101051.31;6063266;28;20085;-65
2022/09/04 00:39:08;;;;;;;4.20;1.90;;;;;;;13.24;63.50;101036.81;6046503;28;20037;-64
2022/09/04 00:42:03;;;;;;;6.20;2.33;;;;;;;13.17;63.82;101053.59;6046176;28;20045;-64
2022/09/04 00:45:24;;;;;;;4.70;2.00;;;;;;;13.23;64.09;101060.97;6048374;28;20385;-66
2022/09/04 00:48:36;;;;;;;4.70;1.60;;;;;;;13.26;64.12;101058.84;6048199;28;20026;-66
2022/09/04 00:51:59;;;;;;;4.22;2.05;;;;;;;13.18;64.12;101060.59;6046075;28;20041;-65
2022/09/04 00:55:10;;;;;;;4.57;1.77;;;;;;;13.06;64.50;101058.13;6044778;28;20025;-65
2022/09/04 00:58:25;;;;;;;5.18;2.10;;;;;;;13.04;64.44;101054.75;6048238;28;20820;-63
2022/09/04 01:01:24;;;;;;;5.32;1.80;;;;;;;12.94;64.90;101054.03;6042347;28;20108;-64
2022/09/04 01:04:33;;;;;;;4.60;1.90;;;;;;;13.01;64.83;101052.44;6047650;28;20041;-64
2022/09/04 01:08:08;;;;;;;3.40;2.00;;;;;;;12.85;65.10;101054.13;6047647;28;20025;-64
2022/09/04 01:11:23;;;;;;;3.05;1.40;;;;;;;12.78;65.57;101043.22;6036588;28;20050;-64
2022/09/04 01:14:28;;;;;;;3.35;1.67;;;;;;;12.80;65.66;101051.06;6030843;28;20367;-65
2022/09/04 01:17:36;;;;;;;3.28;1.75;;;;;;;12.77;65.81;101051.38;6061258;28;20469;-64
2022/09/04 01:20:40;;;;;;;4.57;1.80;;;;;;;12.76;65.57;101050.53;6044743;28;20144;-63
2022/09/04 01:23:48;;;;;;;4.03;2.00;;;;;;;12.71;65.71;101054.63;6046905;28;20281;-64
2022/09/04 01:27:16;;;;;;;7.05;2.03;;;;;;;12.75;65.50;101058.66;6043899;28;20079;-66
2022/09/04 01:30:14;;;;;;;3.88;1.90;;;;;;;12.66;66.18;101060.41;6023022;28;20129;-64
2022/09/04 01:33:18;;;;;;;4.85;1.83;;;;;;;12.57;66.18;101048.00;6038920;28;20037;-65
2022/09/04 01:36:26;;;;;;;4.13;2.03;;;;;;;12.66;66.33;101048.94;6036955;28;20034;-64
2022/09/04 01:39:24;;;;;;;5.03;1.88;;;;;;;12.58;66.58;101063.00;6061335;28;20049;-63
2022/09/04 01:42:34;;;;;;;5.07;2.03;;;;;;;12.41;67.55;101050.50;6045065;28;20033;-64
2022/09/04 01:46:08;;;;;;;3.72;1.80;;;;;;;12.43;67.19;101051.19;6044880;28;20125;-63
2022/09/04 01:49:24;;;;;;;5.38;2.17;;;;;;;12.45;67.24;101067.81;6023026;28;20038;-65
2022/09/04 01:52:35;;;;;;;4.60;1.92;;;;;;;12.43;67.34;101069.78;6038199;28;20038;-66
2022/09/04 01:55:36;;;;;;;3.90;2.03;;;;;;;12.48;67.51;101071.03;6037267;28;20453;-63
2022/09/04 01:58:50;;;;;;;4.20;1.83;;;;;;;12.50;67.53;101071.69;6046963;28;20029;-65
2022/09/04 02:02:01;;;;;;;5.00;2.00;;;;;;;12.53;66.99;101060.75;6042064;28;20030;-64
2022/09/04 02:05:24;;;;;;;3.33;2.00;;;;;;;12.50;67.16;101085.00;6037927;28;20038;-66
2022/09/04 02:08:54;;;;;;;6.82;2.25;;;;;;;12.52;67.65;101084.88;6028920;28;20123;-64
2022/09/04 02:12:00;;;;;;;3.63;1.80;;;;;;;12.33;67.61;101066.38;6045428;28;20030;-64
2022/09/04 02:15:08;;;;;;;3.97;2.13;;;;;;;12.24;68.16;101069.91;6047593;28;20447;-63
2022/09/04 02:18:18;;;;;;;3.60;2.45;;;;;;;12.18;68.45;101070.47;6042199;28;20058;-66
2022/09/04 02:21:19;;;;;;;4.03;2.15;;;;;;;12.16;68.88;101075.13;6035694;28;20030;-65
2022/09/04 02:24:24;;;;;;;5.25;1.90;;;;;;;12.18;68.95;101081.13;6045204;28;20064;-64
2022/09/04 02:28:01;;;;;;;5.97;2.08;;;;;;;12.15;68.97;101081.44;6060377;28;20458;-64
2022/09/04 02:31:22;;;;;;;5.28;3.35;;;;;;;12.11;69.13;101072.06;6044997;28;20106;-66
2022/09/04 02:34:25;;;;;;;3.75;2.10;;;;;;;12.09;69.36;101074.03;6044745;28;20101;-65
2022/09/04 02:37:20;;;;;;;4.65;2.05;;;;;;;12.10;69.18;101078.34;6037414;28;20532;-65
2022/09/04 02:40:23;;;;;;;4.03;1.95;;;;;;;12.13;69.21;101078.06;6045415;28;20040;-65
2022/09/04 02:43:31;;;;;;;5.38;2.17;;;;;;;12.12;69.18;101081.72;6043707;28;20048;-63
2022/09/04 02:46:35;;;;;;;5.82;2.30;;;;;;;12.07;69.48;101078.66;6045874;28;20080;-63
2022/09/04 02:49:52;;;;;;;3.45;1.98;;;;;;;12.08;69.46;101086.50;6044267;28;20421;-63
2022/09/04 02:53:16;;;;;;;5.00;2.17;;;;;;;12.17;69.22;101084.78;6044966;28;20342;-64
2022/09/04 02:56:20;;;;;;;3.95;2.00;;;;;;;12.18;69.34;101086.44;6045578;28;20030;-63
2022/09/04 02:59:34;;;;;;;4.47;2.00;;;;;;;12.06;69.68;101096.44;6060690;28;20113;-65
2022/09/04 03:02:37;;;;;;;4.75;2.42;;;;;;;12.08;69.58;101101.59;6058924;28;20041;-64
2022/09/04 03:05:41;;;;;;;6.50;2.28;;;;;;;11.95;69.96;101083.34;6043808;28;20532;-64
2022/09/04 03:08:42;;;;;;;5.13;1.83;;;;;;;12.04;69.97;101102.91;6058182;28;20041;-62
2022/09/04 03:11:42;;;;;;;3.58;2.10;;;;;;;11.94;69.92;101085.16;6059981;28;20026;-65
2022/09/04 03:14:53;;;;;;;4.90;2.10;;;;;;;12.03;70.02;101094.06;6030228;28;20038;-64
2022/09/04 03:18:13;;;;;;;5.80;2.30;;;;;;;11.93;70.01;101091.44;6060417;28;20110;-64
2022/09/04 03:21:13;;;;;;;5.50;2.17;;;;;;;11.77;70.71;101072.63;6059438;28;20452;-64
2022/09/04 03:24:17;;;;;;;4.40;2.15;;;;;;;11.86;70.44;101085.03;6034576;28;20569;-65
2022/09/04 03:27:14;;;;;;;4.43;1.92;;;;;;;11.90;70.53;101097.03;6046223;28;20587;-63
2022/09/04 03:30:11;;;;;;;5.75;2.30;;;;;;;11.86;70.65;101085.03;6059936;28;20544;-65
2022/09/04 03:33:47;;;;;;;4.20;2.08;;;;;;;12.00;70.45;101088.19;6043566;28;20046;-65
2022/09/04 03:37:18;;;;;;;6.13;2.45;;;;;;;11.89;70.24;101082.09;5985740;28;20047;-63
2022/09/04 03:40:33;;;;;;;5.43;2.20;;;;;;;11.93;70.49;101087.94;5984376;28;20042;-63
2022/09/04 03:43:37;;;;;;;3.97;1.95;;;;;;;11.93;70.24;101093.25;6035341;28;20228;-63
2022/09/04 03:46:55;;;;;;;4.18;2.13;;;;;;;11.93;70.59;101101.22;6042896;28;20425;-62
2022/09/04 03:50:13;;;;;;;4.32;2.20;;;;;;;11.93;70.88;101114.50;6047796;28;20386;-66
2022/09/04 03:53:20;;;;;;;5.45;2.80;;;;;;;11.90;70.95;101110.31;6046458;28;20064;-65
2022/09/04 03:56:27;;;;;;;4.78;1.85;;;;;;;11.90;70.88;101110.31;6040329;28;20030;-63
2022/09/04 03:59:52;;;;;;;4.70;2.17;;;;;;;11.93;70.89;101099.41;6037966;28;20125;-65
2022/09/04 04:03:06;;;;;;;5.38;2.17;;;;;;;11.89;70.87;101106.00;6043845;28;20034;-65
2022/09/04 04:06:11;;;;;;;4.30;2.20;;;;;;;11.89;70.71;101113.16;6049171;28;20032;-66
2022/09/04 04:09:19;;;;;;;5.00;2.05;;;;;;;12.06;70.54;101130.16;6079155;28;20480;-64
2022/09/04 04:12:26;;;;;;;8.88;2.30;;;;;;;12.11;70.25;101133.22;6047564;28;20381;-65
2022/09/04 04:15:23;;;;;;;4.95;2.38;;;;;;;12.07;70.68;101137.13;6048884;28;20041;-64
2022/09/04 04:18:39;;;;;;;6.90;2.40;;;;;;;11.89;70.68;101115.81;6048821;28;20468;-65
2022/09/04 04:21:56;;;;;;;6.32;2.92;;;;;;;11.90;70.86;101126.28;6040396;28;20382;-66
2022/09/04 04:25:38;;;;;;;5.80;2.40;;;;;;;11.84;71.15;101121.56;6042989;28;20140;-64
2022/09/04 04:28:58;;;;;;;6.85;2.40;;;;;;;11.81;71.95;101132.47;6031673;28;20145;-63
2022/09/04 04:32:15;;;;;;;4.78;2.22;;;;;;;11.73;71.64;101127.03;6038730;28;20034;-65
2022/09/04 04:35:16;;;;;;;4.43;2.30;;;;;;;11.81;71.63;101135.13;6045629;28;20042;-63
2022/09/04 04:38:20;;;;;;;3.50;1.85;;;;;;;11.77;71.79;101144.34;6047512;28;20125;-65
2022/09/04 04:41:29;;;;;;;6.05;2.50;;;;;;;11.70;71.67;101150.38;6047894;28;20025;-64
2022/09/04 04:48:15;;;;;;;5.38;2.60;;;;;;;11.78;71.99;101169.13;6041397;28;20038;-64
2022/09/04 04:51:49;;;;;;;6.55;2.50;;;;;;;11.73;72.36;101172.19;6047818;28;20125;-65
2022/09/04 04:54:58;;;;;;;6.75;2.65;;;;;;;11.84;72.11;101180.03;6055332;28;20092;-65
2022/09/04 04:57:59;;;;;;;5.75;2.50;;;;;;;11.94;71.92;101182.66;6047823;28;20042;-65
2022/09/04 05:01:16;;;;;;;7.15;2.10;;;;;;;12.00;71.71;101186.56;6047016;28;20037;-63
2022/09/04 05:04:28;;;;;;;6.65;2.97;;;;;;;11.90;71.63;101187.41;6063139;28;20061;-66
2022/09/04 05:07:36;;;;;;;6.15;2.63;;;;;;;11.80;72.05;101183.09;6061874;28;20034;-66
2022/09/04 05:10:43;;;;;;;12.18;2.88;;;;;;;11.72;72.88;101186.47;6047331;28;20037;-63
2022/09/04 05:13:49;;;;;;;5.90;2.47;;;;;;;11.75;72.65;101196.81;6045855;28;20038;-65
2022/09/04 05:16:53;;;;;;;4.65;2.28;;;;;;;11.82;72.37;101187.28;6062711;28;20037;-65
2022/09/04 05:19:57;;;;;;;4.95;2.30;;;;;;;11.96;71.85;101195.81;6062412;28;20040;-65
2022/09/04 05:23:04;;;;;;;5.78;2.58;;;;;;;12.01;71.41;101201.53;6045992;28;20377;-66
2022/09/04 05:26:11;;;;;;;;;;;;;;;12.27;70.98;101207.88;6046089;28;20030;-64
2022/09/04 05:29:38;;;;;;;4.70;2.30;;;;;;;12.92;68.92;101210.41;6061659;28;19996;-64
2022/09/04 05:32:47;;;;;;;4.35;2.33;;;;;;;13.31;67.38;101204.84;6043761;28;20461;-63
2022/09/04 05:35:49;;;;;;;6.03;2.65;;;;;;;13.59;65.57;101203.78;6044632;28;20026;-64
2022/09/04 05:39:03;;;;;;;6.22;2.40;;;;;;;13.88;65.85;101217.69;6037402;28;20057;-63
2022/09/04 05:42:03;;;;;;;6.20;2.42;;;;;;;13.50;66.49;101215.38;6046266;28;20123;-63
2022/09/04 05:45:22;;;;;;;6.80;2.67;;;;;;;13.91;65.01;101220.06;6043233;28;20431;-63
2022/09/04 05:48:26;;;;;;;5.93;2.30;;;;;;;14.63;62.11;101230.38;6049647;28;20105;-64
2022/09/04 05:51:40;;;;;;;4.05;2.38;;;;;;;14.46;62.82;101225.94;6043061;28;20145;-63
2022/09/04 05:55:04;;;;;;;5.70;2.50;;;;;;;14.83;62.43;101206.94;6046423;28;20100;-62
2022/09/04 05:58:30;;;;;;;5.07;2.75;;;;;;;14.74;62.68;101229.25;6046398;28;20042;-65
2022/09/04 06:01:52;;;;;;;5.78;2.70;;;;;;;15.21;60.85;101232.25;6045655;28;20030;-64
2022/09/04 06:05:02;;;;;;;5.35;2.63;;;;;;;14.82;62.90;101238.13;6035170;28;20046;-65
2022/09/04 06:08:48;;;;;;;4.28;2.58;;;;;;;15.00;62.27;101246.03;6032633;28;20521;-62
2022/09/04 06:12:08;;;;;;;5.35;3.00;;;;;;;14.96;62.26;101250.03;6017631;28;20378;-64
2022/09/04 06:15:19;;;;;;;4.75;2.30;;;;;;;14.78;63.48;101246.63;5999063;28;20042;-64
2022/09/04 06:18:27;;;;;;;4.22;2.70;;;;;;;15.42;62.14;101252.19;6031639;28;20470;-63
2022/09/04 06:21:33;;;;;;;6.32;2.47;;;;;;;15.69;60.14;101258.25;6059860;28;20049;-64
2022/09/04 06:24:58;;;;;;;6.35;2.67;;;;;;;15.39;61.31;101244.50;6033794;28;20030;-67
2022/09/04 06:28:19;;;;;;;5.95;2.92;;;;;;;15.56;60.52;101263.25;6042509;28;20046;-65
2022/09/04 06:31:20;;;;;;;5.70;2.70;;;;;;;15.31;62.47;101265.84;6025152;28;20049;-65
2022/09/04 06:34:41;;;;;;;7.95;2.75;;;;;;;15.86;60.56;101249.25;6041686;28;20035;-64
2022/09/04 06:37:50;;;;;;;8.32;2.72;;;;;;;15.81;60.20;101263.13;6046019;28;20038;-64
2022/09/04 06:41:28;;;;;;;4.63;2.70;;;;;;;15.78;60.63;101267.97;6039904;28;20109;-65
2022/09/04 06:44:49;;;;;;;7.60;2.92;;;;;;;15.66;60.54;101254.09;6021635;28;20095;-65
2022/09/04 06:48:07;;;;;;;6.45;3.25;;;;;;;15.92;60.78;101260.13;6044481;28;20034;-65
2022/09/04 06:51:20;;;;;;;7.10;2.78;;;;;;;16.03;60.50;101257.09;6044893;28;20021;-63
2022/09/04 06:54:24;;;;;;;6.97;2.88;;;;;;;16.29;59.86;101256.91;6055063;28;20038;-64
2022/09/04 06:57:22;;;;;;;6.53;3.10;;;;;;;16.74;58.86;101255.50;6039557;28;20485;-63
2022/09/04 07:00:18;;;;;;;5.07;2.92;;;;;;;16.33;59.60;101258.25;6044766;28;20029;-63
2022/09/04 07:03:43;;;;;;;6.07;2.78;;;;;;;16.59;59.18;101264.25;6052755;28;20038;-65
2022/09/04 07:07:01;;;;;;;5.25;3.05;;;;;;;16.88;58.86;101269.00;6021201;28;20038;-66
2022/09/04 07:10:01;;;;;;;5.57;2.88;;;;;;;16.80;58.42;101242.25;6044827;28;20060;-65
2022/09/04 07:13:44;;;;;;;7.18;2.95;;;;;;;17.28;57.56;101268.00;6044303;28;20037;-64
2022/09/04 07:16:44;;;;;;;5.13;2.85;;;;;;;17.38;57.63;101262.41;6045708;28;20069;-66
2022/09/04 07:20:01;;;;;;;8.90;3.22;;;;;;;17.68;57.23;101280.34;6044154;28;20029;-64
2022/09/04 07:23:15;;;;;;;11.63;3.33;;;;;;;17.84;56.33;101274.88;6047852;28;20433;-63
2022/09/04 07:26:28;;;;;;;6.97;3.10;;;;;;;17.57;57.32;101284.28;6048695;28;20537;-65
2022/09/04 07:29:32;;;;;;;8.30;3.25;;;;;;;17.57;57.17;101284.28;6064622;28;20045;-63
2022/09/04 07:32:33;;;;;;;6.00;3.35;;;;;;;17.70;56.44;101292.56;6048164;28;20084;-63
2022/09/04 07:35:35;;;;;;;6.70;3.38;;;;;;;17.59;57.27;101289.44;6050207;28;20555;-64
2022/09/04 07:38:48;;;;;;;7.85;3.45;;;;;;;17.80;57.27;101293.16;6047848;28;20040;-66
2022/09/04 07:42:27;;;;;;;5.60;3.00;;;;;;;18.15;55.87;101286.38;6063110;28;20393;-64
2022/09/04 07:45:33;;;;;;;5.90;3.00;;;;;;;18.33;55.34;101286.03;6006084;28;20116;-63
2022/09/04 07:48:42;;;;;;;7.13;3.15;;;;;;;18.34;55.58;101283.16;6029131;28;20058;-64
2022/09/04 07:52:02;;;;;;;7.50;3.42;;;;;;;18.51;55.01;101281.16;6045544;28;20042;-65
2022/09/04 07:55:09;;;;;;;8.00;3.80;;;;;;;18.50;55.01;101292.09;6070264;28;20087;-64
2022/09/04 07:58:43;;;;;;;8.02;3.15;;;;;;;18.78;54.65;101285.09;6026407;28;20117;-63
2022/09/04 08:01:59;;;;;;;6.97;3.85;;;;;;;18.97;53.72;101282.66;6033259;28;20062;-65
2022/09/04 08:05:00;;;;;;;7.55;3.17;;;;;;;19.14;53.57;101293.22;6043638;28;20163;-63
2022/09/04 08:08:00;;;;;;;6.85;3.08;;;;;;;19.18;53.23;101287.28;6043120;28;20030;-63
2022/09/04 08:11:25;;;;;;;6.65;3.30;;;;;;;19.18;53.37;101298.03;6034806;28;20735;-64
2022/09/04 08:14:44;;;;;;;6.47;3.25;;;;;;;19.32;52.72;101299.03;6034200;28;20034;-64
2022/09/04 08:18:00;;;;;;;;;;;;;;;19.38;53.17;101299.13;6034078;28;20789;-63
2022/09/04 08:21:24;;;;;;;7.03;3.67;;;;;;;19.52;52.76;101303.66;6051085;28;20385;-64
2022/09/04 08:24:38;;;;;;;8.30;3.05;;;;;;;19.62;51.73;101314.13;6067455;28;20484;-62
2022/09/04 08:28:00;;;;;;;8.05;3.17;;;;;;;19.83;51.55;101305.22;6028791;28;20065;-65
2022/09/04 08:31:05;;;;;;;6.82;3.25;;;;;;;19.94;51.98;101310.94;6062382;28;20034;-64
2022/09/04 08:34:31;;;;;;;7.72;2.80;;;;;;;19.91;51.88;101315.88;6042718;28;20041;-65
2022/09/04 08:37:33;;;;;;;5.80;3.30;;;;;;;19.78;51.57;101327.34;6038536;28;20176;-65
2022/09/04 08:41:03;;;;;;;6.20;3.10;;;;;;;19.94;51.48;101324.41;6060080;28;20116;-64
2022/09/04 08:44:33;;;;;;;6.22;3.50;;;;;;;20.28;51.01;101333.63;6047004;28;20034;-63
2022/09/04 08:47:54;;;;;;;5.70;3.25;;;;;;;20.44;49.89;101330.66;6059490;28;20055;-64
2022/09/04 08:51:29;;;;;;;9.05;3.28;;;;;;;20.71;49.67;101338.75;6028790;28;20041;-63
2022/09/04 08:54:39;;;;;;;7.85;3.63;;;;;;;21.07;49.03;101335.06;6056892;28;20033;-63
2022/09/04 08:57:48;;;;;;;6.63;2.95;;;;;;;20.52;50.11;101346.72;6062564;28;20041;-63
2022/09/04 09:00:55;;;;;;;8.40;3.20;;;;;;;20.88;49.54;101343.84;6052498;28;20077;-66
2022/09/04 09:04:25;;;;;;;8.70;3.47;;;;;;;21.05;49.03;101335.25;6044845;28;20050;-63
2022/09/04 09:07:57;;;;;;;7.68;3.83;;;;;;;21.53;48.13;101348.78;6042525;28;20117;-66
2022/09/04 09:11:23;;;;;;;7.80;3.50;;;;;;;21.51;47.51;101351.69;6050341;28;20473;-64
2022/09/04 09:14:46;;;;;;;7.88;3.20;;;;;;;21.46;47.89;101351.47;6026311;28;20027;-63
2022/09/04 09:18:20;;;;;;;6.57;3.40;;;;;;;21.40;47.94;101349.56;6035140;28;20034;-65
2022/09/04 09:21:31;;;;;;;6.78;3.55;;;;;;;21.20;48.80;101357.56;6038263;28;20061;-65
2022/09/04 09:25:01;;;;;;;8.60;3.40;;;;;;;21.48;47.91;101351.25;6062095;28;20048;-64
2022/09/04 09:28:07;;;;;;;7.25;3.17;;;;;;;21.90;47.60;101346.44;6046711;28;20096;-65
2022/09/04 09:31:40;;;;;;;6.68;3.50;;;;;;;22.39;46.85;101345.28;6061503;28;20040;-64
2022/09/04 09:34:57;;;;;;;6.57;3.47;;;;;;;22.58;45.60;101338.19;6046393;28;20060;-65
2022/09/04 09:38:10;;;;;;;4.95;3.30;;;;;;;21.89;46.74;101341.25;6045651;28;20397;-63
2022/09/04 09:41:20;;;;;;;6.97;3.70;;;;;;;22.04;46.60;101336.47;6040737;28;20050;-65
2022/09/04 09:44:46;;;;;;;6.43;3.38;;;;;;;22.16;46.27;101334.00;6045897;28;20473;-64
2022/09/04 09:48:09;;;;;;;6.38;3.47;;;;;;;22.28;46.37;101337.78;6046244;28;20109;-65
2022/09/04 09:51:46;;;;;;;5.50;3.22;;;;;;;22.44;45.39;101316.56;6045991;28;20408;-64
2022/09/04 09:54:58;;;;;;;4.65;2.80;;;;;;;22.63;45.33;101331.16;6024017;28;20584;-64
2022/09/04 09:58:09;;;;;;;6.03;3.38;;;;;;;22.70;45.38;101325.72;6046303;28;20044;-65
2022/09/04 10:01:30;;;;;;;7.38;3.22;;;;;;;22.74;45.57;101322.41;6025539;28;20453;-64
2022/09/04 10:04:42;;;;;;;5.78;3.10;;;;;;;23.21;44.30;101329.34;6043563;28;20022;-64
2022/09/04 10:08:15;;;;;;;6.57;3.10;;;;;;;23.69;43.55;101314.38;6044738;28;20535;-64
2022/09/04 10:11:42;;;;;;;9.18;3.15;;;;;;;23.51;43.16;101318.81;6034458;28;20478;-66
2022/09/04 10:15:15;;;;;;;6.45;2.88;;;;;;;23.80;42.78;101318.28;6045411;28;20030;-64
2022/09/04 10:18:34;;;;;;;6.28;3.13;;;;;;;23.57;43.00;101302.56;6037332;28;20025;-65
2022/09/04 10:21:49;;;;;;;6.22;3.00;;;;;;;23.80;42.63;101312.00;6051601;28;20030;-66
2022/09/04 10:25:12;;;;;;;6.85;3.05;;;;;;;23.83;42.71;101301.59;6033873;28;20444;-65
2022/09/04 10:28:13;;;;;;;5.30;3.05;;;;;;;24.21;42.28;101309.69;6043068;28;20528;-66
2022/09/04 10:31:09;;;;;;;5.60;3.00;;;;;;;24.23;41.47;101321.13;6044323;28;20563;-64
2022/09/04 10:34:31;;;;;;;5.40;3.03;;;;;;;24.18;42.19;101304.69;6041580;28;20030;-64
2022/09/04 10:37:49;;;;;;;5.72;3.45;;;;;;;24.37;41.18;101298.28;6009832;28;20045;-64
2022/09/04 10:41:07;;;;;;;4.43;2.97;;;;;;;24.05;41.59;101310.19;6037998;28;20032;-66
2022/09/04 10:44:11;;;;;;;8.27;3.28;;;;;;;24.07;42.20;101318.91;6035827;28;20093;-66
2022/09/04 10:47:43;;;;;;;5.95;3.30;;;;;;;24.15;41.34;101295.13;6060686;28;20088;-66
2022/09/04 10:51:07;;;;;;;7.15;2.75;;;;;;;24.33;41.63;101315.19;6044193;28;20037;-65
2022/09/04 10:54:43;;;;;;;4.70;2.65;;;;;;;24.07;42.03;101292.66;6044965;28;20033;-66
2022/09/04 10:58:17;;;;;;;6.18;3.20;;;;;;;24.48;41.29;101313.81;6050645;28;20088;-64
2022/09/04 11:01:31;;;;;;;5.78;3.10;;;;;;;24.73;40.84;101298.31;6047804;28;20041;-64
2022/09/04 11:04:58;;;;;;;7.85;2.92;;;;;;;24.68;40.51;101311.75;6038082;28;20037;-65
2022/09/04 11:08:18;;;;;;;5.72;3.08;;;;;;;24.25;41.54;101310.88;6034741;28;20038;-64
2022/09/04 11:11:17;;;;;;;6.60;3.45;;;;;;;24.59;41.35;101299.53;6056571;28;20041;-64
2022/09/04 11:14:12;;;;;;;5.05;3.17;;;;;;;24.70;41.11;101300.69;6052573;28;20030;-65
2022/09/04 11:17:27;;;;;;;5.00;3.17;;;;;;;24.68;40.97;101295.47;6051655;28;20030;-65
2022/09/04 11:20:50;;;;;;;5.53;3.10;;;;;;;24.90;40.68;101308.63;6052024;28;20377;-65
2022/09/04 11:24:05;;;;;;;4.63;2.78;;;;;;;24.96;40.69;101297.69;6067834;28;20032;-64
2022/09/04 11:27:48;;;;;;;6.55;3.25;;;;;;;24.93;40.50;101297.31;6052811;28;20049;-64
2022/09/04 11:31:19;;;;;;;5.63;3.08;;;;;;;24.78;40.54;101290.38;6049541;28;20139;-65
2022/09/04 11:34:32;;;;;;;;;;;;;;;25.23;39.76;101292.78;6049525;28;20423;-64
2022/09/04 11:37:46;;;;;;;6.03;3.28;;;;;;;25.20;40.26;101293.22;6050001;28;19928;-64
2022/09/04 11:41:03;;;;;;;7.18;2.90;;;;;;;25.67;39.42;101284.28;6045367;28;20038;-66
2022/09/04 11:44:16;;;;;;;8.02;3.35;;;;;;;25.30;39.58;101277.25;6043748;28;20406;-64
2022/09/04 11:47:31;;;;;;;7.88;3.13;;;;;;;25.36;39.51;101281.75;6051241;28;20030;-64
2022/09/04 11:50:55;;;;;;;5.93;3.20;;;;;;;25.39;39.20;101273.16;6065497;28;20779;-63
2022/09/04 11:54:22;;;;;;;4.85;3.15;;;;;;;25.30;39.12;101269.09;6038664;28;20128;-65
2022/09/04 11:57:36;;;;;;;4.70;2.85;;;;;;;25.36;39.52;101277.16;6041950;28;20068;-64
2022/09/04 12:00:58;;;;;;;5.07;3.30;;;;;;;25.20;39.42;101271.50;6046225;28;20060;-66
2022/09/04 12:03:57;;;;;;;6.95;3.58;;;;;;;25.27;40.10;101280.44;6050885;28;20087;-65
2022/09/04 12:07:00;;;;;;;5.53;3.20;;;;;;;25.65;39.00;101280.97;6067143;28;20044;-65
2022/09/04 12:10:23;;;;;;;8.13;3.17;;;;;;;25.59;39.13;101289.22;6039151;28;20030;-65
2022/09/04 12:13:52;;;;;;;5.82;2.72;;;;;;;25.79;38.73;101282.41;6048791;28;20069;-65
2022/09/04 12:17:28;;;;;;;7.40;3.35;;;;;;;25.97;38.11;101281.53;6048979;28;20041;-65
2022/09/04 12:20:44;;;;;;;6.28;3.03;;;;;;;26.34;37.05;101263.16;6046193;28;20030;-64
2022/09/04 12:23:57;;;;;;;8.23;3.10;;;;;;;25.96;37.75;101277.97;6045780;28;20060;-65
2022/09/04 12:27:31;;;;;;;4.15;3.00;;;;;;;26.06;37.71;101282.03;6045224;28;20030;-63
2022/09/04 12:30:43;;;;;;;6.68;3.20;;;;;;;26.11;38.03;101274.00;6033288;28;20053;-65
2022/09/04 12:34:00;;;;;;;5.80;2.95;;;;;;;25.58;38.06;101269.34;6048606;28;20042;-63
2022/09/04 12:37:18;;;;;;;5.78;2.85;;;;;;;25.74;38.23;101281.44;6047221;28;20026;-64
2022/09/04 12:40:28;;;;;;;4.65;2.92;;;;;;;26.03;38.06;101261.56;6033263;28;20072;-63
2022/09/04 12:43:41;;;;;;;9.02;2.88;;;;;;;26.00;37.64;101265.59;6047252;28;20380;-65
2022/09/04 12:46:36;;;;;;;7.80;2.67;;;;;;;26.37;37.05;101279.84;6048274;28;20112;-63
2022/09/04 12:50:09;;;;;;;5.77;2.90;;;;;;;26.26;37.68;101291.53;6048128;28;20033;-63
2022/09/04 12:53:27;;;;;;;5.57;3.08;;;;;;;26.18;37.78;101283.72;6048300;28;20026;-64
2022/09/04 12:56:48;;;;;;;3.97;2.55;;;;;;;26.26;37.34;101277.09;6048223;28;20036;-64
2022/09/04 13:00:00;;;;;;;4.68;2.90;;;;;;;26.54;37.37;101258.19;6046367;28;20125;-65
2022/09/04 13:03:16;;;;;;;4.68;2.63;;;;;;;26.70;36.24;101273.78;6047576;28;20099;-65
2022/09/04 13:06:34;;;;;;;6.07;2.70;;;;;;;26.68;36.50;101294.16;6047889;28;20563;-65
2022/09/04 13:09:45;;;;;;;6.35;2.70;;;;;;;26.27;37.17;101287.75;6044498;28;20048;-64
2022/09/04 13:13:10;;;;;;;5.22;3.00;;;;;;;26.58;37.18;101284.69;6062038;28;20067;-65
2022/09/04 13:16:16;;;;;;;4.55;2.45;;;;;;;26.70;36.67;101284.69;6051789;28;20061;-64
2022/09/04 13:19:17;;;;;;;5.68;3.00;;;;;;;26.45;36.81;101281.38;6043977;28;20145;-65
2022/09/04 13:22:39;;;;;;;4.15;2.83;;;;;;;26.38;36.78;101291.56;6046714;28;20030;-64
2022/09/04 13:25:52;;;;;;;7.32;2.63;;;;;;;26.21;37.08;101274.25;6016368;28;20129;-65
2022/09/04 13:28:53;;;;;;;4.22;2.47;;;;;;;26.71;36.92;101291.78;6047364;28;20033;-64
2022/09/04 13:31:52;;;;;;;6.65;2.72;;;;;;;27.09;35.31;101283.94;6041701;28;20032;-65
2022/09/04 13:35:11;;;;;;;4.97;2.65;;;;;;;27.48;35.44;101282.28;6061769;28;20092;-66
2022/09/04 13:38:28;;;;;;;5.82;2.55;;;;;;;27.55;34.87;101283.00;6051494;28;20478;-66
2022/09/04 13:41:26;;;;;;;4.05;3.10;;;;;;;27.12;35.45;101288.09;6041381;28;20481;-66
2022/09/04 13:44:30;;;;;;;5.65;2.83;;;;;;;26.77;36.04;101290.81;6043258;28;20037;-65
2022/09/04 13:47:29;;;;;;;3.50;2.08;;;;;;;26.55;36.42;101287.06;6042740;28;20497;-65
2022/09/04 13:50:31;;;;;;;5.88;2.50;;;;;;;26.58;36.31;101276.50;6061750;28;20034;-65
2022/09/04 13:53:32;;;;;;;6.22;2.70;;;;;;;26.63;36.71;101280.44;6046028;28;20121;-65
2022/09/04 13:56:50;;;;;;;5.13;2.60;;;;;;;26.69;36.06;101288.47;6046925;28;20061;-65
2022/09/04 13:59:48;;;;;;;4.70;2.85;;;;;;;26.67;36.38;101284.31;6062079;28;20492;-66
2022/09/04 14:02:44;;;;;;;5.28;2.60;;;;;;;26.84;36.30;101288.00;6040707;28;20049;-66
2022/09/04 14:05:40;;;;;;;5.47;2.70;;;;;;;26.95;36.23;101288.00;6043327;28;20038;-66
2022/09/04 14:08:36;;;;;;;3.72;2.38;;;;;;;26.85;35.91;101270.63;6039168;28;20042;-66
2022/09/04 14:11:32;;;;;;;5.65;2.75;;;;;;;26.86;36.20;101283.16;6026427;28;20030;-66
2022/09/04 14:14:33;;;;;;;5.37;2.73;;;;;;;27.15;35.89;101285.69;6044049;28;20030;-66
2022/09/04 14:18:04;;;;;;;9.27;2.42;;;;;;;26.81;36.62;101280.31;6045366;28;20525;-65
2022/09/04 14:21:09;;;;;;;5.07;3.17;;;;;;;26.82;36.41;101273.81;6037575;28;20404;-65
2022/09/04 14:24:17;;;;;;;4.80;2.50;;;;;;;27.01;36.08;101291.66;6046407;28;20117;-65
2022/09/04 14:27:27;;;;;;;4.75;2.92;;;;;;;26.61;36.84;101275.22;6046086;28;20109;-65
2022/09/04 14:30:22;;;;;;;7.03;2.85;;;;;;;26.40;37.29;101289.41;6034238;28;20115;-66
2022/09/04 14:33:23;;;;;;;4.93;2.73;;;;;;;26.21;37.64;101296.03;6044054;28;20034;-64
2022/09/04 14:36:38;;;;;;;5.00;2.60;;;;;;;26.04;38.17;101288.50;6037101;28;20280;-64
2022/09/04 14:39:56;;;;;;;4.57;2.72;;;;;;;25.78;38.73;101286.22;6044468;28;20030;-66
2022/09/04 14:43:20;;;;;;;4.82;2.47;;;;;;;26.01;38.11;101291.69;6055009;28;20027;-65
2022/09/04 14:46:27;;;;;;;6.43;3.05;;;;;;;26.02;37.92;101287.09;6021841;28;20068;-65
2022/09/04 14:49:24;;;;;;;4.60;2.42;;;;;;;26.46;36.97;101293.91;6039567;28;20040;-65
2022/09/04 14:52:22;;;;;;;4.25;2.75;;;;;;;26.32;37.58;101277.00;6036543;28;20056;-65
2022/09/04 14:55:26;;;;;;;3.60;2.83;;;;;;;26.29;37.51;101279.34;6045944;28;20430;-64
2022/09/04 14:58:29;;;;;;;6.38;3.10;;;;;;;26.29;37.66;101290.22;6043140;28;20469;-65
2022/09/04 15:01:25;;;;;;;4.82;2.75;;;;;;;26.32;37.93;101287.03;6042664;28;20042;-64
2022/09/04 15:04:24;;;;;;;4.93;2.90;;;;;;;26.39;37.58;101295.94;6043156;28;20801;-65